sensor_id;sensor_type;location;lat;lon;timestamp;pressure;altitude;pressure_sealevel;temperature;humidity
67842;BME280;54642;59.126;37.876;2022-09-13T00:00:36;100379.72;;;11.45;72.33
67842;BME280;54642;59.126;37.876;2022-09-13T00:03:02;100378.88;;;11.43;72.50
67842;BME280;54642;59.126;37.876;2022-09-13T00:05:29;100357.31;;;11.27;72.65
67842;BME280;54642;59.126;37.876;2022-09-13T00:07:56;100306.38;;;10.95;72.56
67842;BME280;54642;59.126;37.876;2022-09-13T00:10:23;100397.00;;;11.51;72.62
67842;BME280;54642;59.126;37.876;2022-09-13T00:12:49;100379.72;;;11.43;72.77
67842;BME280;54642;59.126;37.876;2022-09-13T00:15:15;100393.53;;;11.55;72.53
67842;BME280;54642;59.126;37.876;2022-09-13T00:17:41;100378.84;;;11.51;72.47
67842;BME280;54642;59.126;37.876;2022-09-13T00:20:08;100384.00;;;11.55;72.55
67842;BME280;54642;59.126;37.876;2022-09-13T00:22:35;100343.44;;;11.34;72.24
67842;BME280;54642;59.126;37.876;2022-09-13T00:25:02;100363.31;;;11.43;72.22
67842;BME280;54642;59.126;37.876;2022-09-13T00:27:30;100393.47;;;11.64;72.02
67842;BME280;54642;59.126;37.876;2022-09-13T00:29:56;100350.38;;;11.32;71.86
67842;BME280;54642;59.126;37.876;2022-09-13T00:32:22;100395.25;;;11.57;72.23
67842;BME280;54642;59.126;37.876;2022-09-13T00:34:48;100358.97;;;11.40;71.98
67842;BME280;54642;59.126;37.876;2022-09-13T00:37:14;100401.31;;;11.58;72.16
67842;BME280;54642;59.126;37.876;2022-09-13T00:39:40;100360.72;;;11.38;72.06
67842;BME280;54642;59.126;37.876;2022-09-13T00:42:10;100386.59;;;11.57;71.93
67842;BME280;54642;59.126;37.876;2022-09-13T00:44:59;100396.13;;;11.59;71.86
67842;BME280;54642;59.126;37.876;2022-09-13T00:53:08;100395.31;;;11.43;72.03
67842;BME280;54642;59.126;37.876;2022-09-13T00:55:43;100406.56;;;11.35;72.17
67842;BME280;54642;59.126;37.876;2022-09-13T00:58:23;100392.75;;;11.23;72.46
67842;BME280;54642;59.126;37.876;2022-09-13T01:00:51;100333.19;;;10.79;72.66
67842;BME280;54642;59.126;37.876;2022-09-13T01:03:19;100387.63;;;11.00;72.83
67842;BME280;54642;59.126;37.876;2022-09-13T01:05:53;100397.13;;;10.92;72.88
67842;BME280;54642;59.126;37.876;2022-09-13T01:08:21;100352.22;;;10.62;73.08
67842;BME280;54642;59.126;37.876;2022-09-13T01:10:51;100386.75;;;10.80;73.10
67842;BME280;54642;59.126;37.876;2022-09-13T01:13:20;100376.41;;;10.67;73.20
67842;BME280;54642;59.126;37.876;2022-09-13T01:15:47;100314.19;;;10.30;73.04
67842;BME280;54642;59.126;37.876;2022-09-13T01:18:14;100389.34;;;10.69;73.18
67842;BME280;54642;59.126;37.876;2022-09-13T01:31:35;100356.53;;;10.63;72.87
67842;BME280;54642;59.126;37.876;2022-09-13T01:34:49;100367.75;;;10.68;72.73
67842;BME280;54642;59.126;37.876;2022-09-13T01:37:31;100385.91;;;10.59;72.63
67842;BME280;54642;59.126;37.876;2022-09-13T01:42:41;100418.75;;;10.65;73.09
67842;BME280;54642;59.126;37.876;2022-09-13T01:56:19;100402.31;;;10.46;73.55
67842;BME280;54642;59.126;37.876;2022-09-13T01:58:54;100389.34;;;10.40;73.49
67842;BME280;54642;59.126;37.876;2022-09-13T02:01:29;100388.50;;;10.38;73.71
67842;BME280;54642;59.126;37.876;2022-09-13T02:04:12;100391.91;;;10.29;73.57
67842;BME280;54642;59.126;37.876;2022-09-13T02:06:46;100305.50;;;9.81;73.65
67842;BME280;54642;59.126;37.876;2022-09-13T02:09:18;100328.81;;;9.93;73.62
67842;BME280;54642;59.126;37.876;2022-09-13T02:11:49;100384.97;;;10.22;73.88
67842;BME280;54642;59.126;37.876;2022-09-13T02:14:39;100383.25;;;10.22;73.91
67842;BME280;54642;59.126;37.876;2022-09-13T02:17:17;100384.97;;;10.20;73.88
67842;BME280;54642;59.126;37.876;2022-09-13T02:19:56;100370.28;;;10.13;73.67
67842;BME280;54642;59.126;37.876;2022-09-13T02:22:34;100375.47;;;10.15;73.83
67842;BME280;54642;59.126;37.876;2022-09-13T02:25:08;100365.97;;;10.09;73.88
67842;BME280;54642;59.126;37.876;2022-09-13T02:27:36;100323.59;;;9.78;73.85
67842;BME280;54642;59.126;37.876;2022-09-13T02:30:07;100377.16;;;10.06;74.01
67842;BME280;54642;59.126;37.876;2022-09-13T02:32:47;100343.47;;;9.80;73.99
67842;BME280;54642;59.126;37.876;2022-09-13T02:35:17;100380.63;;;10.01;73.87
67842;BME280;54642;59.126;37.876;2022-09-13T02:37:47;100372.81;;;9.90;73.73
67842;BME280;54642;59.126;37.876;2022-09-13T02:40:18;100349.47;;;9.68;73.93
67842;BME280;54642;59.126;37.876;2022-09-13T02:42:52;100378.81;;;9.81;73.76
67842;BME280;54642;59.126;37.876;2022-09-13T02:45:27;100342.50;;;9.52;74.14
67842;BME280;54642;59.126;37.876;2022-09-13T02:47:58;100373.63;;;9.66;73.76
67842;BME280;54642;59.126;37.876;2022-09-13T02:55:43;100373.59;;;9.64;73.68
67842;BME280;54642;59.126;37.876;2022-09-13T02:58:18;100385.69;;;9.62;73.47
67842;BME280;54642;59.126;37.876;2022-09-13T03:00:46;100332.94;;;9.37;73.59
67842;BME280;54642;59.126;37.876;2022-09-13T03:03:14;100381.34;;;9.60;73.57
67842;BME280;54642;59.126;37.876;2022-09-13T03:05:41;100383.06;;;9.61;73.41
67842;BME280;54642;59.126;37.876;2022-09-13T03:08:09;100374.44;;;9.56;73.51
67842;BME280;54642;59.126;37.876;2022-09-13T03:13:34;100373.56;;;9.58;73.56
67842;BME280;54642;59.126;37.876;2022-09-13T03:16:35;100381.31;;;9.50;73.41
67842;BME280;54642;59.126;37.876;2022-09-13T03:25:02;100325.13;;;9.26;73.46
67842;BME280;54642;59.126;37.876;2022-09-13T03:30:18;100353.69;;;9.49;73.38
67842;BME280;54642;59.126;37.876;2022-09-13T03:32:51;100374.44;;;9.56;73.28
67842;BME280;54642;59.126;37.876;2022-09-13T03:35:36;100337.25;;;9.38;73.40
67842;BME280;54642;59.126;37.876;2022-09-13T03:38:15;100373.56;;;9.58;73.30
67842;BME280;54642;59.126;37.876;2022-09-13T03:43:49;100375.28;;;9.58;73.18
67842;BME280;54642;59.126;37.876;2022-09-13T03:46:30;100343.28;;;9.31;73.25
67842;BME280;54642;59.126;37.876;2022-09-13T03:49:04;100363.19;;;9.50;73.48
67842;BME280;54642;59.126;37.876;2022-09-13T03:51:32;100381.34;;;9.60;73.31
67842;BME280;54642;59.126;37.876;2022-09-13T03:54:01;100369.25;;;9.57;73.46
67842;BME280;54642;59.126;37.876;2022-09-13T03:56:28;100360.63;;;9.53;73.54
67842;BME280;54642;59.126;37.876;2022-09-13T03:58:54;100368.38;;;9.57;73.46
67842;BME280;54642;59.126;37.876;2022-09-13T04:01:21;100379.66;;;9.69;73.36
67842;BME280;54642;59.126;37.876;2022-09-13T04:03:47;100382.25;;;9.72;73.57
67842;BME280;54642;59.126;37.876;2022-09-13T04:06:13;100390.03;;;9.77;73.04
67842;BME280;54642;59.126;37.876;2022-09-13T04:08:39;100374.50;;;9.74;73.29
67842;BME280;54642;59.126;37.876;2022-09-13T04:11:05;100345.13;;;9.60;73.26
67842;BME280;54642;59.126;37.876;2022-09-13T04:13:31;100340.84;;;9.82;73.48
67842;BME280;54642;59.126;37.876;2022-09-13T04:16:01;100376.34;;;10.24;73.87
67842;BME280;54642;59.126;37.876;2022-09-13T04:18:27;100377.25;;;10.42;73.66
67842;BME280;54642;59.126;37.876;2022-09-13T04:20:55;100396.28;;;10.67;73.44
67842;BME280;54642;59.126;37.876;2022-09-13T04:23:22;100360.84;;;10.71;73.00
67842;BME280;54642;59.126;37.876;2022-09-13T04:25:49;100385.03;;;11.00;73.12
67842;BME280;54642;59.126;37.876;2022-09-13T04:28:20;100378.94;;;11.12;72.86
67842;BME280;54642;59.126;37.876;2022-09-13T04:30:48;100384.13;;;11.20;72.35
67842;BME280;54642;59.126;37.876;2022-09-13T04:33:14;100372.88;;;11.27;71.63
67842;BME280;54642;59.126;37.876;2022-09-13T04:35:42;100395.34;;;11.28;71.67
67842;BME280;54642;59.126;37.876;2022-09-13T04:38:08;100378.06;;;11.27;70.99
67842;BME280;54642;59.126;37.876;2022-09-13T04:40:34;100378.06;;;11.27;71.25
67842;BME280;54642;59.126;37.876;2022-09-13T04:43:02;100381.47;;;11.34;70.99
67842;BME280;54642;59.126;37.876;2022-09-13T04:45:28;100376.28;;;11.40;71.19
67842;BME280;54642;59.126;37.876;2022-09-13T04:47:54;100365.06;;;11.35;70.62
67842;BME280;54642;59.126;37.876;2022-09-13T04:50:22;100330.53;;;11.06;70.42
67842;BME280;54642;59.126;37.876;2022-09-13T04:52:49;100348.66;;;11.19;70.26
67842;BME280;54642;59.126;37.876;2022-09-13T04:55:15;100368.53;;;11.31;70.01
67842;BME280;54642;59.126;37.876;2022-09-13T04:57:41;100371.13;;;11.32;70.01
67842;BME280;54642;59.126;37.876;2022-09-13T05:00:08;100365.91;;;11.34;69.98
67842;BME280;54642;59.126;37.876;2022-09-13T05:02:34;100365.06;;;11.33;69.65
67842;BME280;54642;59.126;37.876;2022-09-13T05:05:01;100350.38;;;11.31;69.68
67842;BME280;54642;59.126;37.876;2022-09-13T05:07:27;100365.88;;;11.44;69.71
67842;BME280;54642;59.126;37.876;2022-09-13T05:09:53;100315.78;;;11.19;69.30
67842;BME280;54642;59.126;37.876;2022-09-13T05:12:18;100363.22;;;11.58;69.19
67842;BME280;54642;59.126;37.876;2022-09-13T05:14:44;100340.81;;;11.47;68.96
67842;BME280;54642;59.126;37.876;2022-09-13T05:17:10;100317.41;;;11.50;68.73
67842;BME280;54642;59.126;37.876;2022-09-13T05:19:36;100356.22;;;11.80;68.52
67842;BME280;54642;59.126;37.876;2022-09-13T05:22:02;100356.19;;;11.87;68.43
67842;BME280;54642;59.126;37.876;2022-09-13T05:24:28;100329.41;;;11.77;68.32
67842;BME280;54642;59.126;37.876;2022-09-13T05:26:54;100354.44;;;11.95;68.28
67842;BME280;54642;59.126;37.876;2022-09-13T05:29:19;100368.22;;;12.05;68.11
67842;BME280;54642;59.126;37.876;2022-09-13T05:31:45;100350.88;;;12.08;68.02
67842;BME280;54642;59.126;37.876;2022-09-13T05:34:14;100359.44;;;12.21;67.92
67842;BME280;54642;59.126;37.876;2022-09-13T05:36:40;100355.09;;;12.25;67.88
67842;BME280;54642;59.126;37.876;2022-09-13T05:39:12;100362.88;;;12.31;67.72
67842;BME280;54642;59.126;37.876;2022-09-13T05:41:39;100323.06;;;12.21;67.60
67842;BME280;54642;59.126;37.876;2022-09-13T05:44:05;100346.28;;;12.47;67.67
67842;BME280;54642;59.126;37.876;2022-09-13T05:46:31;100358.28;;;12.61;67.50
67842;BME280;54642;59.126;37.876;2022-09-13T05:48:57;100372.06;;;12.73;67.42
67842;BME280;54642;59.126;37.876;2022-09-13T05:51:24;100359.00;;;12.76;67.20
67842;BME280;54642;59.126;37.876;2022-09-13T05:53:51;100320.19;;;12.56;67.23
67842;BME280;54642;59.126;37.876;2022-09-13T05:56:20;100348.53;;;12.86;67.03
67842;BME280;54642;59.126;37.876;2022-09-13T05:58:47;100360.56;;;12.96;66.52
67842;BME280;54642;59.126;37.876;2022-09-13T06:01:16;100361.34;;;13.06;66.66
67842;BME280;54642;59.126;37.876;2022-09-13T06:03:42;100355.97;;;13.20;66.37
67842;BME280;54642;59.126;37.876;2022-09-13T06:06:09;100304.13;;;13.03;66.44
67842;BME280;54642;59.126;37.876;2022-09-13T06:08:35;100319.59;;;13.18;66.04
67842;BME280;54642;59.126;37.876;2022-09-13T06:11:02;100365.03;;;13.65;65.59
67842;BME280;54642;59.126;37.876;2022-09-13T06:13:29;100336.44;;;13.59;65.49
67842;BME280;54642;59.126;37.876;2022-09-13T06:15:56;100360.47;;;13.83;64.99
67842;BME280;54642;59.126;37.876;2022-09-13T06:18:23;100362.97;;;13.90;64.73
67842;BME280;54642;59.126;37.876;2022-09-13T06:21:21;100361.81;;;14.11;64.67
67842;BME280;54642;59.126;37.876;2022-09-13T06:23:49;100353.19;;;14.06;64.29
67842;BME280;54642;59.126;37.876;2022-09-13T06:26:18;100365.25;;;14.14;64.39
67842;BME280;54642;59.126;37.876;2022-09-13T06:28:49;100360.78;;;14.22;63.89
67842;BME280;54642;59.126;37.876;2022-09-13T06:31:17;100343.41;;;14.21;63.51
67842;BME280;54642;59.126;37.876;2022-09-13T06:33:43;100319.97;;;14.19;63.64
67842;BME280;54642;59.126;37.876;2022-09-13T06:36:12;100356.88;;;14.51;63.21
67842;BME280;54642;59.126;37.876;2022-09-13T06:38:43;100366.34;;;14.55;62.54
67842;BME280;54642;59.126;37.876;2022-09-13T06:41:18;100321.56;;;14.29;62.53
67842;BME280;54642;59.126;37.876;2022-09-13T06:43:45;100350.84;;;14.45;62.81
67842;BME280;54642;59.126;37.876;2022-09-13T06:46:14;100316.25;;;14.34;62.23
67842;BME280;54642;59.126;37.876;2022-09-13T06:48:42;100361.75;;;14.72;62.25
67842;BME280;54642;59.126;37.876;2022-09-13T06:51:21;100360.63;;;14.87;61.63
67842;BME280;54642;59.126;37.876;2022-09-13T06:53:49;100375.06;;;15.06;61.59
67842;BME280;54642;59.126;37.876;2022-09-13T06:56:19;100367.81;;;15.21;60.74
67842;BME280;54642;59.126;37.876;2022-09-13T06:58:48;100367.91;;;15.16;60.84
67842;BME280;54642;59.126;37.876;2022-09-13T07:01:22;100349.03;;;15.02;60.68
67842;BME280;54642;59.126;37.876;2022-09-13T07:03:53;100357.16;;;15.32;60.61
67842;BME280;54642;59.126;37.876;2022-09-13T07:06:35;100362.00;;;15.50;60.04
67842;BME280;54642;59.126;37.876;2022-09-13T07:09:04;100366.41;;;15.48;59.65
67842;BME280;54642;59.126;37.876;2022-09-13T07:11:36;100352.66;;;15.40;59.33
67842;BME280;54642;59.126;37.876;2022-09-13T07:14:02;100366.22;;;15.57;60.18
67842;BME280;54642;59.126;37.876;2022-09-13T07:16:31;100353.06;;;15.62;58.50
67842;BME280;54642;59.126;37.876;2022-09-13T07:19:00;100363.59;;;15.59;57.95
67842;BME280;54642;59.126;37.876;2022-09-13T07:21:27;100374.03;;;15.59;57.45
67842;BME280;54642;59.126;37.876;2022-09-13T07:23:54;100320.47;;;15.38;57.65
67842;BME280;54642;59.126;37.876;2022-09-13T07:26:21;100366.78;;;15.75;57.30
67842;BME280;54642;59.126;37.876;2022-09-13T07:28:49;100361.53;;;15.73;56.60
67842;BME280;54642;59.126;37.876;2022-09-13T07:31:39;100331.22;;;15.66;56.76
67842;BME280;54642;59.126;37.876;2022-09-13T07:34:07;100360.09;;;16.00;56.42
67842;BME280;54642;59.126;37.876;2022-09-13T07:36:36;100354.81;;;16.04;55.44
67842;BME280;54642;59.126;37.876;2022-09-13T07:39:03;100360.63;;;16.15;54.89
67842;BME280;54642;59.126;37.876;2022-09-13T07:41:30;100353.78;;;16.11;53.59
67842;BME280;54642;59.126;37.876;2022-09-13T07:43:56;100336.53;;;16.02;53.15
67842;BME280;54642;59.126;37.876;2022-09-13T07:46:24;100365.78;;;16.19;53.13
67842;BME280;54642;59.126;37.876;2022-09-13T07:48:53;100342.28;;;16.18;52.93
67842;BME280;54642;59.126;37.876;2022-09-13T07:51:25;100347.97;;;16.35;53.30
67842;BME280;54642;59.126;37.876;2022-09-13T07:53:51;100352.25;;;16.38;54.13
67842;BME280;54642;59.126;37.876;2022-09-13T07:56:20;100348.72;;;16.41;52.98
67842;BME280;54642;59.126;37.876;2022-09-13T07:58:48;100332.00;;;16.46;52.54
67842;BME280;54642;59.126;37.876;2022-09-13T08:01:17;100348.44;;;16.53;51.59
67842;BME280;54642;59.126;37.876;2022-09-13T08:03:47;100322.41;;;16.47;51.46
67842;BME280;54642;59.126;37.876;2022-09-13T08:06:15;100353.56;;;16.56;52.10
67842;BME280;54642;59.126;37.876;2022-09-13T08:08:40;100337.72;;;16.62;51.41
67842;BME280;54642;59.126;37.876;2022-09-13T08:11:06;100336.50;;;16.75;51.00
67842;BME280;54642;59.126;37.876;2022-09-13T08:13:32;100336.19;;;16.89;50.61
67842;BME280;54642;59.126;37.876;2022-09-13T08:16:03;100300.06;;;16.68;50.51
67842;BME280;54642;59.126;37.876;2022-09-13T08:18:30;100327.41;;;16.92;50.33
67842;BME280;54642;59.126;37.876;2022-09-13T08:20:57;100336.56;;;17.08;50.31
67842;BME280;54642;59.126;37.876;2022-09-13T08:23:24;100322.38;;;17.15;49.14
67842;BME280;54642;59.126;37.876;2022-09-13T08:25:50;100326.56;;;17.23;49.01
67842;BME280;54642;59.126;37.876;2022-09-13T08:28:18;100293.22;;;16.96;48.56
67842;BME280;54642;59.126;37.876;2022-09-13T08:30:46;100323.34;;;17.11;48.27
67842;BME280;54642;59.126;37.876;2022-09-13T08:33:13;100294.13;;;16.95;47.85
67842;BME280;54642;59.126;37.876;2022-09-13T08:35:39;100319.44;;;16.95;47.32
67842;BME280;54642;59.126;37.876;2022-09-13T08:38:06;100286.13;;;16.67;47.18
67842;BME280;54642;59.126;37.876;2022-09-13T08:40:44;100322.34;;;16.83;47.17
67842;BME280;54642;59.126;37.876;2022-09-13T08:46:20;100327.84;;;16.73;47.42
67842;BME280;54642;59.126;37.876;2022-09-13T08:48:48;100320.78;;;16.75;48.54
67842;BME280;54642;59.126;37.876;2022-09-13T08:51:33;100283.59;;;16.64;47.72
67842;BME280;54642;59.126;37.876;2022-09-13T08:54:02;100310.19;;;16.83;47.04
67842;BME280;54642;59.126;37.876;2022-09-13T08:56:39;100284.03;;;16.80;47.49
67842;BME280;54642;59.126;37.876;2022-09-13T09:13:00;100293.88;;;17.05;47.17
67842;BME280;54642;59.126;37.876;2022-09-13T09:18:12;100288.00;;;16.96;45.62
67842;BME280;54642;59.126;37.876;2022-09-13T09:20:44;100295.03;;;16.94;45.66
67842;BME280;54642;59.126;37.876;2022-09-13T09:23:17;100289.91;;;16.90;46.62
67842;BME280;54642;59.126;37.876;2022-09-13T09:25:44;100286.19;;;16.99;46.53
67842;BME280;54642;59.126;37.876;2022-09-13T09:28:15;100290.31;;;17.07;46.49
67842;BME280;54642;59.126;37.876;2022-09-13T09:36:03;100285.34;;;16.98;45.81
67842;BME280;54642;59.126;37.876;2022-09-13T09:38:38;100245.72;;;16.77;46.20
67842;BME280;54642;59.126;37.876;2022-09-13T09:41:12;100267.25;;;16.89;46.11
67842;BME280;54642;59.126;37.876;2022-09-13T09:43:45;100267.88;;;16.97;46.20
67842;BME280;54642;59.126;37.876;2022-09-13T09:46:14;100237.81;;;16.79;46.01
67842;BME280;54642;59.126;37.876;2022-09-13T09:48:44;100192.97;;;16.62;46.16
67842;BME280;54642;59.126;37.876;2022-09-13T09:51:13;100274.56;;;17.09;45.76
67842;BME280;54642;59.126;37.876;2022-09-13T09:53:44;100264.28;;;17.03;46.21
67842;BME280;54642;59.126;37.876;2022-09-13T09:56:24;100266.03;;;17.01;46.00
67842;BME280;54642;59.126;37.876;2022-09-13T09:58:52;100266.00;;;17.02;46.04
67842;BME280;54642;59.126;37.876;2022-09-13T10:06:33;100178.69;;;16.42;46.13
67842;BME280;54642;59.126;37.876;2022-09-13T10:09:03;100259.38;;;16.90;46.25
67842;BME280;54642;59.126;37.876;2022-09-13T10:20:01;100242.09;;;16.85;45.80
67842;BME280;54642;59.126;37.876;2022-09-13T10:22:30;100191.28;;;16.59;45.89
67842;BME280;54642;59.126;37.876;2022-09-13T10:25:22;100230.53;;;16.92;45.50
67842;BME280;54642;59.126;37.876;2022-09-13T10:27:54;100241.78;;;16.95;45.20
67842;BME280;54642;59.126;37.876;2022-09-13T10:30:45;100226.06;;;16.95;45.18
67842;BME280;54642;59.126;37.876;2022-09-13T10:33:33;100184.09;;;16.67;45.07
67842;BME280;54642;59.126;37.876;2022-09-13T10:36:05;100213.34;;;16.83;45.42
67842;BME280;54642;59.126;37.876;2022-09-13T10:38:33;100217.50;;;16.90;45.33
67842;BME280;54642;59.126;37.876;2022-09-13T10:41:02;100206.97;;;16.92;44.79
67842;BME280;54642;59.126;37.876;2022-09-13T10:43:31;100208.09;;;16.82;45.49
67842;BME280;54642;59.126;37.876;2022-09-13T10:45:58;100204.69;;;16.80;45.65
67842;BME280;54642;59.126;37.876;2022-09-13T10:48:28;100195.94;;;16.79;46.08
67842;BME280;54642;59.126;37.876;2022-09-13T10:53:33;100204.38;;;16.92;45.45
67842;BME280;54642;59.126;37.876;2022-09-13T10:55:59;100186.25;;;16.84;45.32
67842;BME280;54642;59.126;37.876;2022-09-13T10:58:27;100188.09;;;16.79;45.28
67842;BME280;54642;59.126;37.876;2022-09-13T11:03:55;100181.00;;;16.83;45.31
67842;BME280;54642;59.126;37.876;2022-09-13T11:07:10;100174.97;;;16.81;45.90
67842;BME280;54642;59.126;37.876;2022-09-13T11:12:13;100147.31;;;16.72;45.43
67842;BME280;54642;59.126;37.876;2022-09-13T11:23:52;100171.34;;;16.86;45.18
67842;BME280;54642;59.126;37.876;2022-09-13T11:37:10;100148.66;;;16.87;44.90
67842;BME280;54642;59.126;37.876;2022-09-13T11:39:50;100073.19;;;16.42;45.30
67842;BME280;54642;59.126;37.876;2022-09-13T11:42:41;100145.13;;;16.88;44.66
67842;BME280;54642;59.126;37.876;2022-09-13T11:45:17;100147.88;;;16.85;44.10
67842;BME280;54642;59.126;37.876;2022-09-13T11:55:58;100112.84;;;16.89;44.20
67842;BME280;54642;59.126;37.876;2022-09-13T11:58:41;100128.22;;;17.00;44.06
67842;BME280;54642;59.126;37.876;2022-09-13T12:01:12;100114.16;;;17.02;43.60
67842;BME280;54642;59.126;37.876;2022-09-13T12:04:01;100112.59;;;16.96;44.05
67842;BME280;54642;59.126;37.876;2022-09-13T12:06:35;100101.19;;;16.99;44.35
67842;BME280;54642;59.126;37.876;2022-09-13T12:11:42;100089.41;;;17.12;44.05
67842;BME280;54642;59.126;37.876;2022-09-13T12:14:18;100085.56;;;17.24;44.42
67842;BME280;54642;59.126;37.876;2022-09-13T12:16:49;100090.41;;;17.37;43.95
67842;BME280;54642;59.126;37.876;2022-09-13T12:19:28;100089.41;;;17.41;44.22
67842;BME280;54642;59.126;37.876;2022-09-13T12:21:58;100077.91;;;17.45;43.60
67842;BME280;54642;59.126;37.876;2022-09-13T12:24:46;100064.13;;;17.38;43.45
67842;BME280;54642;59.126;37.876;2022-09-13T12:27:28;100068.16;;;17.48;43.70
67842;BME280;54642;59.126;37.876;2022-09-13T12:32:25;100044.53;;;17.50;43.93
67842;BME280;54642;59.126;37.876;2022-09-13T12:40:28;100067.84;;;17.58;43.44
67842;BME280;54642;59.126;37.876;2022-09-13T12:48:23;100060.75;;;17.61;44.03
67842;BME280;54642;59.126;37.876;2022-09-13T12:59:59;100063.28;;;17.64;43.81
67842;BME280;54642;59.126;37.876;2022-09-13T13:02:27;100060.81;;;17.60;44.41
67842;BME280;54642;59.126;37.876;2022-09-13T13:04:59;100057.28;;;17.61;44.18
67842;BME280;54642;59.126;37.876;2022-09-13T13:07:27;100055.41;;;17.64;44.71
67842;BME280;54642;59.126;37.876;2022-09-13T13:09:57;100043.84;;;17.45;44.66
67842;BME280;54642;59.126;37.876;2022-09-13T13:12:36;100022.63;;;17.26;45.01
67842;BME280;54642;59.126;37.876;2022-09-13T13:17:50;100046.72;;;17.10;45.25
67842;BME280;54642;59.126;37.876;2022-09-13T13:20:38;100045.19;;;17.03;45.64
67842;BME280;54642;59.126;37.876;2022-09-13T13:23:19;100051.44;;;16.99;45.91
67842;BME280;54642;59.126;37.876;2022-09-13T13:33:49;100054.53;;;16.84;46.34
67842;BME280;54642;59.126;37.876;2022-09-13T13:36:24;100047.81;;;16.73;46.29
67842;BME280;54642;59.126;37.876;2022-09-13T13:38:56;100052.22;;;16.73;46.79
67842;BME280;54642;59.126;37.876;2022-09-13T13:44:01;100039.47;;;16.62;46.57
67842;BME280;54642;59.126;37.876;2022-09-13T13:46:45;100046.97;;;16.73;46.96
67842;BME280;54642;59.126;37.876;2022-09-13T13:57:33;100044.84;;;16.56;47.14
67842;BME280;54642;59.126;37.876;2022-09-13T14:00:19;100049.25;;;16.55;47.10
67842;BME280;54642;59.126;37.876;2022-09-13T14:19:22;100047.91;;;16.42;47.70
67842;BME280;54642;59.126;37.876;2022-09-13T14:22:20;100047.03;;;16.42;48.28
67842;BME280;54642;59.126;37.876;2022-09-13T14:24:49;100052.31;;;16.40;48.39
67842;BME280;54642;59.126;37.876;2022-09-13T14:27:33;100019.84;;;16.17;48.56
67842;BME280;54642;59.126;37.876;2022-09-13T14:30:03;100046.44;;;16.32;49.07
67842;BME280;54642;59.126;37.876;2022-09-13T14:32:37;100043.88;;;16.30;48.88
67842;BME280;54642;59.126;37.876;2022-09-13T14:35:17;100019.06;;;16.14;48.70
67842;BME280;54642;59.126;37.876;2022-09-13T14:37:46;100004.53;;;16.04;49.49
67842;BME280;54642;59.126;37.876;2022-09-13T14:40:22;100014.91;;;16.07;49.44
67842;BME280;54642;59.126;37.876;2022-09-13T14:42:51;100037.09;;;16.23;49.30
67842;BME280;54642;59.126;37.876;2022-09-13T14:50:27;100029.13;;;15.96;50.19
67842;BME280;54642;59.126;37.876;2022-09-13T14:53:06;100019.16;;;15.79;49.93
67842;BME280;54642;59.126;37.876;2022-09-13T14:55:36;100027.84;;;15.80;50.10
67842;BME280;54642;59.126;37.876;2022-09-13T14:58:13;100015.03;;;15.69;50.24
67842;BME280;54642;59.126;37.876;2022-09-13T15:01:10;100028.84;;;15.76;49.97
67842;BME280;54642;59.126;37.876;2022-09-13T15:03:42;100029.13;;;15.63;51.06
67842;BME280;54642;59.126;37.876;2022-09-13T15:06:26;100011.97;;;15.53;51.19
67842;BME280;54642;59.126;37.876;2022-09-13T15:09:36;100022.41;;;15.53;51.34
67842;BME280;54642;59.126;37.876;2022-09-13T15:19:42;100005.78;;;15.23;51.71
67842;BME280;54642;59.126;37.876;2022-09-13T15:22:21;100026.31;;;15.37;51.23
67842;BME280;54642;59.126;37.876;2022-09-13T15:24:53;100021.16;;;15.34;52.37
67842;BME280;54642;59.126;37.876;2022-09-13T15:27:31;100021.19;;;15.32;52.07
67842;BME280;54642;59.126;37.876;2022-09-13T15:30:31;100022.16;;;15.30;51.99
67842;BME280;54642;59.126;37.876;2022-09-13T15:35:41;99975.06;;;14.98;51.46
67842;BME280;54642;59.126;37.876;2022-09-13T15:40:45;100013.94;;;15.09;52.15
67842;BME280;54642;59.126;37.876;2022-09-13T15:43:12;100026.03;;;15.13;52.84
67842;BME280;54642;59.126;37.876;2022-09-13T15:45:38;100021.09;;;15.01;52.96
67842;BME280;54642;59.126;37.876;2022-09-13T15:48:05;100008.34;;;14.89;53.49
67842;BME280;54642;59.126;37.876;2022-09-13T15:50:32;100009.31;;;14.84;53.64
67842;BME280;54642;59.126;37.876;2022-09-13T15:52:59;100021.41;;;14.89;53.90
67842;BME280;54642;59.126;37.876;2022-09-13T15:55:26;100012.91;;;14.79;53.53
67842;BME280;54642;59.126;37.876;2022-09-13T15:57:53;100010.25;;;14.80;53.74
67842;BME280;54642;59.126;37.876;2022-09-13T16:00:22;100004.28;;;14.75;53.90
67842;BME280;54642;59.126;37.876;2022-09-13T16:02:49;100008.53;;;14.81;53.31
67842;BME280;54642;59.126;37.876;2022-09-13T16:05:15;99979.47;;;14.59;53.55
67842;BME280;54642;59.126;37.876;2022-09-13T16:07:43;100014.66;;;14.78;53.35
67842;BME280;54642;59.126;37.876;2022-09-13T16:10:12;100001.97;;;14.63;53.76
67842;BME280;54642;59.126;37.876;2022-09-13T16:12:40;99972.03;;;14.40;53.99
67842;BME280;54642;59.126;37.876;2022-09-13T16:15:07;99958.31;;;14.30;53.88
67842;BME280;54642;59.126;37.876;2022-09-13T16:17:33;100005.53;;;14.57;54.10
67842;BME280;54642;59.126;37.876;2022-09-13T16:19:59;100010.00;;;14.52;53.84
67842;BME280;54642;59.126;37.876;2022-09-13T16:22:25;99985.94;;;14.39;54.17
67842;BME280;54642;59.126;37.876;2022-09-13T16:24:50;100012.69;;;14.49;54.56
67842;BME280;54642;59.126;37.876;2022-09-13T16:27:18;99991.28;;;14.35;54.34